createdAt,value
2023-03-11T00:00:55.453Z,65.50
2023-03-11T00:03:27.612Z,65.40
2023-03-11T00:05:55.835Z,65.40
2023-03-11T00:08:24.571Z,65.50
2023-03-11T00:10:55.206Z,65.50
2023-03-11T00:13:22.863Z,65.40
2023-03-11T00:15:51.747Z,65.50
2023-03-11T00:18:18.488Z,65.30
2023-03-11T00:20:46.548Z,65.30
2023-03-11T00:23:14.494Z,65.30
2023-03-11T00:25:44.728Z,65.10
2023-03-11T00:28:11.907Z,65.00
2023-03-11T00:30:40.499Z,65.00
2023-03-11T00:33:07.896Z,65.00
2023-03-11T00:35:35.157Z,64.90
2023-03-11T00:38:05.681Z,64.90
2023-03-11T00:40:33.826Z,64.90
2023-03-11T00:43:02.850Z,64.90
2023-03-11T00:45:31.094Z,64.80
2023-03-11T00:47:58.157Z,64.80
2023-03-11T00:50:28.743Z,64.70
2023-03-11T00:52:56.526Z,64.70
2023-03-11T00:55:30.389Z,64.60
2023-03-11T00:58:00.981Z,65.20
2023-03-11T01:00:33.688Z,64.50
2023-03-11T01:03:02.661Z,64.50
2023-03-11T01:05:32.698Z,64.50
2023-03-11T01:07:59.976Z,64.50
2023-03-11T01:10:27.546Z,64.50
2023-03-11T01:12:54.305Z,64.40
2023-03-11T01:15:25.037Z,64.30
2023-03-11T01:17:51.856Z,64.30
2023-03-11T01:20:18.876Z,64.20
2023-03-11T01:22:46.040Z,64.20
2023-03-11T01:25:17.403Z,64.10
2023-03-11T01:27:44.770Z,64.10
2023-03-11T01:30:15.736Z,64.00
2023-03-11T01:32:42.882Z,63.90
2023-03-11T01:35:13.156Z,64.00
2023-03-11T01:37:40.106Z,63.90
2023-03-11T01:40:08.405Z,64.00
2023-03-11T01:42:35.142Z,64.00
2023-03-11T01:45:02.005Z,63.90
2023-03-11T01:47:39.670Z,63.90
2023-03-11T01:50:12.406Z,63.80
2023-03-11T01:52:40.872Z,63.60
2023-03-11T01:55:08.304Z,63.80
2023-03-11T01:57:38.925Z,63.60
2023-03-11T02:00:09.173Z,63.60
2023-03-11T02:03:06.331Z,63.60
2023-03-11T02:05:35.198Z,63.60
2023-03-11T02:08:02.904Z,63.60
2023-03-11T02:10:33.223Z,63.60
2023-03-11T02:13:03.767Z,63.60
2023-03-11T02:15:31.257Z,63.60
2023-03-11T02:17:59.330Z,63.50
2023-03-11T02:20:54.686Z,63.50
2023-03-11T02:23:28.991Z,63.60
2023-03-11T02:26:11.022Z,63.30
2023-03-11T02:28:40.674Z,63.40
2023-03-11T02:31:08.391Z,63.30
2023-03-11T02:33:37.063Z,63.30
2023-03-11T02:36:04.359Z,63.30
2023-03-11T02:38:31.177Z,63.30
2023-03-11T02:41:01.144Z,63.30
2023-03-11T02:43:42.986Z,63.20
2023-03-11T02:46:12.682Z,63.10
2023-03-11T02:48:39.668Z,63.00
2023-03-11T02:51:06.359Z,63.10
2023-03-11T02:53:38.902Z,63.10
2023-03-11T02:56:06.322Z,63.00
2023-03-11T02:58:34.538Z,63.00
2023-03-11T03:01:01.340Z,63.00
2023-03-11T03:03:28.215Z,63.00
2023-03-11T03:05:54.862Z,63.60
2023-03-11T03:08:21.594Z,62.90
2023-03-11T03:10:48.254Z,62.80
2023-03-11T03:13:15.007Z,62.90
2023-03-11T03:15:41.816Z,62.80
2023-03-11T03:18:08.550Z,62.90
2023-03-11T03:20:35.323Z,62.80
2023-03-11T03:23:02.630Z,62.60
2023-03-11T03:25:31.487Z,62.80
2023-03-11T03:28:02.026Z,62.60
2023-03-11T03:30:31.003Z,62.60
2023-03-11T03:32:57.681Z,62.60
2023-03-11T03:35:24.327Z,62.60
2023-03-11T03:38:01.272Z,62.50
2023-03-11T03:40:28.202Z,62.50
2023-03-11T03:42:57.061Z,62.50
2023-03-11T03:45:24.143Z,62.40
2023-03-11T03:47:52.856Z,62.40
2023-03-11T03:50:21.899Z,62.30
2023-03-11T03:52:50.574Z,62.30
2023-03-11T03:55:17.758Z,62.30
2023-03-11T03:57:44.590Z,62.30
2023-03-11T04:00:13.676Z,62.40
2023-03-11T04:02:46.390Z,62.20
2023-03-11T04:05:22.017Z,62.20
2023-03-11T04:07:48.772Z,62.10
2023-03-11T04:10:15.750Z,62.20
2023-03-11T04:12:43.258Z,62.10
2023-03-11T04:15:10.479Z,62.10
2023-03-11T04:17:39.000Z,62.10
2023-03-11T04:20:12.796Z,62.00
2023-03-11T04:22:40.933Z,62.00
2023-03-11T04:25:08.284Z,62.00
2023-03-11T04:27:35.025Z,61.90
2023-03-11T04:30:04.449Z,61.80
2023-03-11T04:32:32.116Z,62.00
2023-03-11T04:34:58.970Z,61.90
2023-03-11T04:37:29.613Z,61.80
2023-03-11T04:39:57.123Z,61.80
2023-03-11T04:42:24.764Z,61.70
2023-03-11T04:44:52.380Z,61.80
2023-03-11T04:47:19.480Z,61.70
2023-03-11T04:49:46.126Z,61.70
2023-03-11T04:52:12.860Z,61.70
2023-03-11T04:54:40.011Z,61.70
2023-03-11T04:57:07.103Z,61.50
2023-03-11T04:59:35.213Z,61.70
2023-03-11T05:02:02.593Z,61.60
2023-03-11T05:04:30.633Z,61.50
2023-03-11T05:06:57.369Z,61.50
2023-03-11T05:09:25.652Z,61.50
2023-03-11T05:11:52.442Z,61.50
2023-03-11T05:14:20.688Z,61.30
2023-03-11T05:16:47.776Z,61.50
2023-03-11T05:19:34.540Z,61.50
2023-03-11T05:22:07.583Z,61.40
2023-03-11T05:24:34.459Z,61.90
2023-03-11T05:27:02.064Z,61.30
2023-03-11T05:29:31.976Z,61.30
2023-03-11T05:31:59.094Z,61.30
2023-03-11T05:34:25.914Z,61.20
2023-03-11T05:36:52.547Z,61.30
2023-03-11T05:39:19.854Z,61.10
2023-03-11T05:41:47.124Z,61.20
2023-03-11T05:44:14.762Z,61.20
2023-03-11T05:46:42.265Z,61.20
2023-03-11T05:49:09.867Z,61.10
2023-03-11T05:51:37.549Z,61.10
2023-03-11T05:54:04.332Z,61.00
2023-03-11T05:56:37.472Z,61.10
2023-03-11T05:59:04.331Z,61.00
2023-03-11T06:01:34.632Z,61.00
2023-03-11T06:04:02.058Z,60.90
2023-03-11T06:06:29.035Z,61.00
2023-03-11T06:08:56.044Z,61.00
2023-03-11T06:11:25.582Z,60.90
2023-03-11T06:13:54.427Z,61.10
2023-03-11T06:16:23.193Z,61.00
2023-03-11T06:18:50.015Z,60.90
2023-03-11T06:21:22.085Z,60.90
2023-03-11T06:23:49.307Z,60.80
2023-03-11T06:26:20.154Z,60.80
2023-03-11T06:28:48.085Z,60.80
2023-03-11T06:31:21.340Z,60.60
2023-03-11T06:33:48.785Z,60.60
2023-03-11T06:36:17.392Z,60.60
2023-03-11T06:38:44.228Z,60.50
2023-03-11T06:41:11.162Z,60.40
2023-03-11T06:43:38.590Z,60.60
2023-03-11T06:46:11.721Z,60.50
2023-03-11T06:48:39.665Z,60.40
2023-03-11T06:51:06.807Z,60.40
2023-03-11T06:53:34.147Z,60.30
2023-03-11T06:56:12.803Z,60.20
2023-03-11T06:58:45.741Z,60.20
2023-03-11T07:01:16.966Z,60.20
2023-03-11T07:03:46.283Z,60.00
2023-03-11T07:06:22.626Z,60.10
2023-03-11T07:08:52.126Z,60.10
2023-03-11T07:11:28.996Z,60.20
2023-03-11T07:14:06.081Z,60.00
2023-03-11T07:16:38.273Z,60.20
2023-03-11T07:19:10.995Z,60.00
2023-03-11T07:21:38.456Z,59.90
2023-03-11T07:24:06.012Z,60.00
2023-03-11T07:26:34.796Z,59.80
2023-03-11T07:29:01.911Z,60.00
2023-03-11T07:31:31.306Z,60.00
2023-03-11T07:33:59.911Z,59.90
2023-03-11T07:36:27.975Z,59.80
2023-03-11T07:39:05.591Z,59.60
2023-03-11T07:41:34.858Z,59.70
2023-03-11T07:44:04.557Z,59.60
2023-03-11T07:46:32.256Z,59.50
2023-03-11T07:48:59.392Z,59.20
2023-03-11T07:51:29.198Z,59.10
2023-03-11T07:53:57.596Z,58.90
2023-03-11T07:56:26.255Z,59.40
2023-03-11T07:58:53.832Z,59.20
2023-03-11T08:01:26.247Z,59.40
2023-03-11T08:03:58.694Z,59.70
2023-03-11T08:06:31.261Z,59.50
2023-03-11T08:09:00.012Z,59.70
2023-03-11T08:11:27.041Z,59.60
2023-03-11T08:13:53.943Z,59.60
2023-03-11T08:16:22.198Z,59.50
2023-03-11T08:18:50.397Z,59.30
2023-03-11T08:21:22.641Z,59.00
2023-03-11T08:23:50.188Z,58.90
2023-03-11T08:26:21.781Z,58.80
2023-03-11T08:28:49.302Z,58.70
2023-03-11T08:31:18.424Z,58.60
2023-03-11T08:33:47.233Z,58.60
2023-03-11T08:36:14.122Z,58.60
2023-03-11T08:38:40.889Z,58.70
2023-03-11T08:41:07.681Z,58.60
2023-03-11T08:43:34.648Z,58.70
2023-03-11T08:46:03.176Z,58.40
2023-03-11T08:48:30.386Z,58.40
2023-03-11T08:50:57.042Z,59.20
2023-03-11T08:53:23.862Z,58.40
2023-03-11T08:55:51.491Z,58.50
2023-03-11T08:58:19.454Z,58.70
2023-03-11T09:00:46.322Z,58.60
2023-03-11T09:03:13.645Z,58.60
2023-03-11T09:05:40.626Z,58.60
2023-03-11T09:08:07.441Z,58.40
2023-03-11T09:10:34.129Z,58.20
2023-03-11T09:13:00.820Z,57.60
2023-03-11T09:15:27.651Z,57.70
2023-03-11T09:17:54.437Z,58.70
2023-03-11T09:20:21.270Z,58.30
2023-03-11T09:22:47.937Z,57.80
2023-03-11T09:25:15.471Z,57.80
2023-03-11T09:27:42.205Z,57.70
2023-03-11T09:30:10.228Z,57.70
2023-03-11T09:32:37.061Z,57.90
2023-03-11T09:35:04.570Z,57.70
2023-03-11T09:37:31.466Z,58.00
2023-03-11T09:39:58.134Z,57.90
2023-03-11T09:42:41.007Z,57.70
2023-03-11T09:45:29.373Z,57.80
2023-03-11T09:48:35.190Z,57.60
2023-03-11T09:51:28.137Z,58.20
2023-03-11T09:54:05.377Z,57.70
2023-03-11T09:56:35.668Z,57.50
2023-03-11T09:59:08.907Z,57.40
2023-03-11T10:01:42.547Z,57.70
2023-03-11T10:04:38.291Z,57.60
2023-03-11T10:07:15.204Z,57.40
2023-03-11T10:09:50.800Z,57.70
2023-03-11T10:12:50.937Z,57.40
2023-03-11T10:15:42.436Z,57.70
2023-03-11T10:18:33.256Z,57.50
2023-03-11T10:21:10.621Z,57.50
2023-03-11T10:23:58.972Z,57.50
2023-03-11T10:26:33.417Z,57.60
2023-03-11T10:29:25.403Z,57.50
2023-03-11T10:32:02.847Z,57.40
2023-03-11T10:34:38.740Z,57.30
2023-03-11T10:37:18.427Z,56.80
2023-03-11T10:39:48.103Z,57.10
2023-03-11T10:42:24.086Z,57.00
2023-03-11T10:44:52.539Z,57.00
2023-03-11T10:47:23.038Z,56.80
2023-03-11T10:49:50.336Z,57.50
2023-03-11T10:52:16.976Z,56.90
2023-03-11T10:54:47.808Z,57.00
2023-03-11T10:57:26.578Z,57.00
2023-03-11T10:59:57.959Z,57.10
2023-03-11T11:02:33.466Z,56.80
2023-03-11T11:05:26.559Z,56.80
2023-03-11T11:08:13.088Z,56.90
2023-03-11T11:10:53.252Z,57.10
2023-03-11T11:13:21.986Z,56.70
2023-03-11T11:15:55.160Z,56.70
2023-03-11T11:18:49.375Z,56.90
2023-03-11T11:21:34.428Z,57.10
2023-03-11T11:24:01.020Z,56.80
2023-03-11T11:26:27.762Z,56.80
2023-03-11T11:29:10.842Z,57.00
2023-03-11T11:31:38.881Z,56.90
2023-03-11T11:34:31.562Z,56.80
2023-03-11T11:37:00.656Z,56.70
2023-03-11T11:39:32.263Z,56.70
2023-03-11T11:42:01.462Z,56.40
2023-03-11T11:44:33.664Z,56.60
2023-03-11T11:47:16.195Z,57.00
2023-03-11T11:49:52.076Z,57.00
2023-03-11T11:52:26.895Z,57.10
2023-03-11T11:55:20.680Z,56.90
2023-03-11T11:57:47.896Z,56.00
2023-03-11T12:00:24.928Z,56.20
2023-03-11T12:03:13.791Z,56.60
2023-03-11T12:06:00.156Z,56.50
2023-03-11T12:08:46.493Z,56.90
2023-03-11T12:11:24.489Z,56.20
2023-03-11T12:14:09.344Z,56.40
2023-03-11T12:16:50.018Z,56.20
2023-03-11T12:19:33.759Z,56.10
2023-03-11T12:22:25.160Z,55.90
2023-03-11T12:25:03.750Z,56.40
2023-03-11T12:27:32.519Z,56.10
2023-03-11T12:30:04.766Z,56.00
2023-03-11T12:32:43.241Z,56.30
2023-03-11T12:35:30.826Z,55.90
2023-03-11T12:38:03.212Z,56.50
2023-03-11T12:41:04.978Z,56.70
2023-03-11T12:43:33.614Z,56.40
2023-03-11T12:46:01.892Z,56.20
2023-03-11T12:48:31.299Z,55.90
2023-03-11T12:50:58.732Z,56.00
2023-03-11T12:53:45.252Z,55.80
2023-03-11T12:56:39.968Z,55.60
2023-03-11T12:59:18.319Z,55.60
2023-03-11T13:01:51.236Z,55.70
2023-03-11T13:04:30.271Z,55.70
2023-03-11T13:07:25.798Z,55.90
2023-03-11T13:10:07.863Z,55.80
2023-03-11T13:12:42.181Z,55.90
2023-03-11T13:15:21.097Z,56.00
2023-03-11T13:18:12.239Z,55.80
2023-03-11T13:20:38.880Z,55.90
2023-03-11T13:23:19.939Z,56.10
2023-03-11T13:25:52.083Z,56.00
2023-03-11T13:28:34.924Z,55.90
2023-03-11T13:31:42.883Z,55.70
2023-03-11T13:34:23.022Z,55.80
2023-03-11T13:37:14.679Z,55.90
2023-03-11T13:40:02.343Z,55.70
2023-03-11T13:42:37.715Z,56.10
2023-03-11T13:45:07.964Z,56.10
2023-03-11T13:47:36.664Z,56.10
2023-03-11T13:50:13.356Z,55.90
2023-03-11T13:52:47.307Z,55.90
2023-03-11T13:55:43.454Z,55.90
2023-03-11T13:58:20.805Z,56.10
2023-03-11T14:00:50.514Z,56.00
2023-03-11T14:03:23.719Z,56.00
2023-03-11T14:06:05.451Z,55.80
2023-03-11T14:08:37.452Z,56.00
2023-03-11T14:11:12.934Z,55.90
2023-03-11T14:13:53.836Z,56.20
2023-03-11T14:16:24.810Z,56.20
2023-03-11T14:19:15.348Z,56.10
2023-03-11T14:21:44.118Z,56.00
2023-03-11T14:24:25.198Z,56.00
2023-03-11T14:26:56.175Z,56.00
2023-03-11T14:29:35.245Z,55.90
2023-03-11T14:32:17.590Z,55.80
2023-03-11T14:34:45.912Z,55.70
2023-03-11T14:37:32.317Z,55.80
2023-03-11T14:39:59.311Z,56.00
2023-03-11T14:42:38.765Z,56.00
2023-03-11T14:45:28.712Z,56.20
2023-03-11T14:48:01.198Z,56.20
2023-03-11T14:50:31.819Z,56.30
2023-03-11T14:53:04.628Z,56.10
2023-03-11T14:55:54.483Z,55.90
2023-03-11T14:58:35.815Z,56.20
2023-03-11T15:01:05.664Z,56.10
2023-03-11T15:03:36.664Z,56.00
2023-03-11T15:06:19.755Z,56.10
2023-03-11T15:08:59.268Z,56.20
2023-03-11T15:11:28.418Z,56.00
2023-03-11T15:14:14.944Z,56.00
2023-03-11T15:16:41.705Z,56.20
2023-03-11T15:19:27.310Z,56.20
2023-03-11T15:21:58.396Z,56.10
2023-03-11T15:24:27.983Z,56.10
2023-03-11T15:27:00.313Z,56.10
2023-03-11T15:29:27.933Z,56.10
2023-03-11T15:31:54.935Z,56.00
2023-03-11T15:34:25.323Z,56.00
2023-03-11T15:36:52.884Z,56.00
2023-03-11T15:39:31.847Z,56.10
2023-03-11T15:42:03.612Z,56.00
2023-03-11T15:44:36.156Z,56.10
2023-03-11T15:47:04.143Z,56.20
2023-03-11T15:49:31.156Z,56.20
2023-03-11T15:51:59.625Z,56.00
2023-03-11T15:54:27.024Z,56.00
2023-03-11T15:56:55.157Z,56.00
2023-03-11T15:59:22.620Z,55.90
2023-03-11T16:01:49.523Z,56.00
2023-03-11T16:04:18.656Z,56.00
2023-03-11T16:06:49.581Z,55.80
2023-03-11T16:09:20.965Z,55.80
2023-03-11T16:11:47.659Z,55.90
2023-03-11T16:14:19.900Z,56.10
2023-03-11T16:16:47.304Z,56.00
2023-03-11T16:19:14.401Z,56.00
2023-03-11T16:21:45.940Z,56.00
2023-03-11T16:24:18.808Z,55.90
2023-03-11T16:26:45.676Z,55.90
2023-03-11T16:29:19.285Z,56.00
2023-03-11T16:31:47.213Z,55.90
2023-03-11T16:34:13.961Z,55.90
2023-03-11T16:36:40.977Z,55.90
2023-03-11T16:39:07.659Z,55.80
2023-03-11T16:41:42.303Z,55.90
2023-03-11T16:44:09.884Z,55.80
2023-03-11T16:46:36.961Z,55.80
2023-03-11T16:49:03.906Z,55.90
2023-03-11T16:51:31.120Z,55.90
2023-03-11T16:53:57.840Z,55.80
2023-03-11T16:56:24.683Z,55.70
2023-03-11T16:58:51.558Z,55.80
2023-03-11T17:01:19.158Z,55.90
2023-03-11T17:03:48.570Z,55.90
2023-03-11T17:06:17.162Z,55.90
2023-03-11T17:08:48.841Z,56.00
2023-03-11T17:11:18.525Z,56.00
2023-03-11T17:13:45.272Z,56.00
2023-03-11T17:16:12.565Z,55.90
2023-03-11T17:18:39.403Z,55.90
2023-03-11T17:21:11.633Z,55.90
2023-03-11T17:23:38.445Z,56.00
2023-03-11T17:26:10.794Z,56.00
2023-03-11T17:28:39.904Z,56.60
2023-03-11T17:31:15.020Z,56.00
2023-03-11T17:33:42.125Z,55.90
2023-03-11T17:36:12.642Z,55.90
2023-03-11T17:38:39.375Z,56.00
2023-03-11T17:41:10.908Z,55.80
2023-03-11T17:43:37.621Z,55.90
2023-03-11T17:46:15.874Z,55.80
2023-03-11T17:48:47.340Z,55.70
2023-03-11T17:51:16.687Z,55.80
2023-03-11T17:53:45.978Z,55.90
2023-03-11T17:56:14.558Z,55.80
2023-03-11T17:58:41.514Z,55.80
2023-03-11T18:01:15.755Z,55.80
2023-03-11T18:03:42.926Z,55.80
2023-03-11T18:06:10.562Z,55.80
2023-03-11T18:08:37.436Z,55.70
2023-03-11T18:11:07.526Z,55.70
2023-03-11T18:13:36.732Z,55.80
2023-03-11T18:16:16.622Z,55.70
2023-03-11T18:18:43.931Z,55.70
2023-03-11T18:21:17.194Z,55.70
2023-03-11T18:23:44.794Z,55.80
2023-03-11T18:26:14.592Z,55.70
2023-03-11T18:28:42.331Z,55.70
2023-03-11T18:31:12.225Z,55.80
2023-03-11T18:33:39.780Z,55.80
2023-03-11T18:36:17.583Z,55.80
2023-03-11T18:38:44.763Z,55.70
2023-03-11T18:41:11.607Z,55.80
2023-03-11T18:43:38.710Z,55.80
2023-03-11T18:46:10.202Z,55.80
2023-03-11T18:48:37.485Z,55.80
2023-03-11T18:51:04.675Z,55.90
2023-03-11T18:53:31.334Z,55.80
2023-03-11T18:56:06.963Z,55.90
2023-03-11T18:58:33.757Z,55.90
2023-03-11T19:01:13.932Z,56.00
2023-03-11T19:03:44.714Z,55.90
2023-03-11T19:06:13.039Z,55.90
2023-03-11T19:08:40.157Z,55.90
2023-03-11T19:11:12.338Z,55.90
2023-03-11T19:13:46.905Z,55.90
2023-03-11T19:16:17.790Z,55.90
2023-03-11T19:18:44.723Z,55.90
2023-03-11T19:21:12.618Z,55.90
2023-03-11T19:23:39.512Z,55.90
2023-03-11T19:26:06.421Z,55.90
2023-03-11T19:28:33.227Z,55.90
2023-03-11T19:31:00.260Z,55.90
2023-03-11T19:33:27.100Z,56.00
2023-03-11T19:35:55.899Z,55.90
2023-03-11T19:38:23.377Z,55.90
2023-03-11T19:40:59.616Z,55.80
2023-03-11T19:43:26.648Z,55.90
2023-03-11T19:45:53.570Z,55.90
2023-03-11T19:48:20.330Z,56.00
2023-03-11T19:50:51.282Z,55.90
2023-03-11T19:53:19.066Z,56.00
2023-03-11T19:55:47.796Z,55.90
2023-03-11T19:58:14.573Z,55.90
2023-03-11T20:00:42.249Z,56.00
2023-03-11T20:03:10.408Z,55.90
2023-03-11T20:05:38.927Z,55.90
2023-03-11T20:08:07.299Z,55.90
2023-03-11T20:10:38.065Z,55.90
2023-03-11T20:13:05.420Z,55.90
2023-03-11T20:15:32.243Z,56.10
2023-03-11T20:18:00.726Z,55.90
2023-03-11T20:20:28.367Z,55.90
2023-03-11T20:22:55.645Z,56.00
2023-03-11T20:25:22.973Z,56.00
2023-03-11T20:27:49.915Z,56.10
2023-03-11T20:30:20.114Z,56.00
2023-03-11T20:32:47.448Z,56.00
2023-03-11T20:35:15.267Z,56.00
2023-03-11T20:37:43.250Z,56.10
2023-03-11T20:40:15.437Z,56.00
2023-03-11T20:42:46.610Z,56.00
2023-03-11T20:45:21.554Z,56.00
2023-03-11T20:47:50.088Z,56.00
2023-03-11T20:50:17.215Z,56.00
2023-03-11T20:52:44.069Z,56.00
2023-03-11T20:55:11.105Z,56.00
2023-03-11T20:57:39.173Z,56.00
2023-03-11T21:00:11.208Z,56.10
2023-03-11T21:02:39.957Z,56.00
2023-03-11T21:05:08.733Z,56.10
2023-03-11T21:07:35.550Z,56.10
2023-03-11T21:10:03.904Z,56.00
2023-03-11T21:12:31.386Z,56.10
2023-03-11T21:14:58.228Z,56.10
2023-03-11T21:17:25.141Z,56.10
2023-03-11T21:19:51.875Z,56.10
2023-03-11T21:22:18.705Z,56.10
2023-03-11T21:24:45.506Z,56.10
2023-03-11T21:27:12.327Z,56.00
2023-03-11T21:29:39.054Z,56.10
2023-03-11T21:32:06.261Z,56.10
2023-03-11T21:34:33.159Z,56.10
2023-03-11T21:36:59.923Z,56.10
2023-03-11T21:39:26.893Z,56.10
2023-03-11T21:41:56.429Z,56.10
2023-03-11T21:44:23.323Z,56.20
2023-03-11T21:46:50.252Z,56.10
2023-03-11T21:49:17.204Z,56.10
2023-03-11T21:51:44.133Z,56.10
2023-03-11T21:54:12.490Z,56.10
2023-03-11T21:56:39.778Z,56.10
2023-03-11T21:59:07.010Z,56.20
2023-03-11T22:01:34.893Z,56.20
2023-03-11T22:04:02.547Z,56.20
2023-03-11T22:06:30.982Z,56.10
2023-03-11T22:08:57.800Z,56.20
2023-03-11T22:11:24.633Z,56.20
2023-03-11T22:13:53.767Z,56.20
2023-03-11T22:16:22.663Z,56.20
2023-03-11T22:18:50.083Z,56.20
2023-03-11T22:21:17.878Z,56.20
2023-03-11T22:23:45.179Z,56.10
2023-03-11T22:26:12.313Z,56.10
2023-03-11T22:28:39.000Z,56.30
2023-03-11T22:31:10.755Z,56.20
2023-03-11T22:33:37.564Z,56.20
2023-03-11T22:36:05.057Z,56.20
2023-03-11T22:38:34.062Z,56.20
2023-03-11T22:41:03.545Z,56.30
2023-03-11T22:43:30.202Z,56.20
2023-03-11T22:45:56.935Z,56.20
2023-03-11T22:48:23.597Z,56.20
2023-03-11T22:50:50.255Z,56.20
2023-03-11T22:53:17.341Z,56.20
2023-03-11T22:55:44.802Z,56.20
2023-03-11T22:58:12.014Z,56.20
2023-03-11T23:00:38.899Z,56.20
2023-03-11T23:03:05.716Z,56.20
2023-03-11T23:05:34.812Z,56.20
2023-03-11T23:08:01.527Z,56.20
2023-03-11T23:10:28.183Z,56.30
2023-03-11T23:12:54.871Z,56.10
2023-03-11T23:15:21.544Z,56.20
2023-03-11T23:17:48.279Z,56.20
2023-03-11T23:20:15.686Z,56.20
2023-03-11T23:22:42.718Z,56.10
2023-03-11T23:25:13.123Z,56.10
2023-03-11T23:27:41.831Z,56.20
2023-03-11T23:30:10.523Z,56.20
2023-03-11T23:32:37.377Z,56.10
2023-03-11T23:35:05.038Z,56.20
2023-03-11T23:37:31.733Z,56.20
2023-03-11T23:39:58.489Z,56.20
2023-03-11T23:42:26.397Z,56.20
2023-03-11T23:44:53.577Z,56.20
2023-03-11T23:47:20.659Z,56.10
2023-03-11T23:49:47.368Z,56.10
2023-03-11T23:52:14.117Z,56.20
2023-03-11T23:54:40.805Z,56.10
2023-03-11T23:57:07.760Z,56.20
2023-03-11T23:59:34.420Z,56.20
